Time;durP1;ratioP1;P1;durP2;ratioP2;P2;SDS_P1;SDS_P2;PMS_P1;PMS_P2;Temp;Humidity;BMP_temperature;BMP_pressure;BME280_temperature;BME280_humidity;BME280_pressure;Samples;Min_cycle;Max_cycle;Signal;HPM_P1;HPM_P2
2021/05/28 00:00:21;;;;;;;11.25;5.33;;;;;;;16.49;100.00;99862.77;1763441;80;21555;-74
2021/05/28 00:02:48;;;;;;;13.60;5.15;;;;;;;16.47;100.00;99862.14;1763540;81;20993;-75
2021/05/28 00:05:15;;;;;;;11.50;5.17;;;;;;;16.46;100.00;99861.28;1763477;81;21053;-73
2021/05/28 00:07:42;;;;;;;12.60;5.25;;;;;;;16.46;100.00;99859.09;1763464;80;21029;-74
2021/05/28 00:10:10;;;;;;;12.78;5.55;;;;;;;16.44;100.00;99857.11;1763644;81;20986;-74
2021/05/28 00:12:37;;;;;;;19.67;6.45;;;;;;;16.40;100.00;99857.23;1763251;81;21041;-74
2021/05/28 00:15:09;;;;;;;21.45;7.92;;;;;;;16.36;100.00;99855.46;1771284;81;21001;-72
2021/05/28 00:17:35;;;;;;;18.42;7.90;;;;;;;16.33;100.00;99851.78;1771308;81;20985;-73
2021/05/28 00:20:08;;;;;;;15.98;6.92;;;;;;;16.29;100.00;99859.56;1763010;81;21594;-73
2021/05/28 00:22:34;;;;;;;14.58;6.55;;;;;;;16.27;100.00;99860.30;1742275;81;21021;-73
2021/05/28 00:25:01;;;;;;;15.03;7.85;;;;;;;16.25;100.00;99852.83;1769499;81;21099;-74
2021/05/28 00:27:31;;;;;;;18.10;7.00;;;;;;;16.23;100.00;99858.20;1771945;81;21522;-74
2021/05/28 00:29:58;;;;;;;18.87;8.60;;;;;;;16.21;100.00;99860.30;1764636;81;20997;-74
2021/05/28 00:32:25;;;;;;;25.92;15.23;;;;;;;16.16;100.00;99857.38;1771847;81;21004;-73
2021/05/28 00:34:52;;;;;;;36.28;25.12;;;;;;;16.11;100.00;99856.13;1771711;81;21013;-73
2021/05/28 00:37:18;;;;;;;41.10;26.07;;;;;;;16.08;100.00;99852.45;1771849;81;21004;-74
2021/05/28 00:39:45;;;;;;;36.98;26.35;;;;;;;16.04;100.00;99847.63;1771901;80;21483;-74
2021/05/28 00:42:12;;;;;;;45.23;28.75;;;;;;;15.99;100.00;99850.14;1771770;81;21001;-74
2021/05/28 00:44:39;;;;;;;44.85;29.18;;;;;;;15.96;100.00;99842.41;1771984;81;21017;-73
2021/05/28 00:47:07;;;;;;;53.10;33.18;;;;;;;15.91;100.00;99845.75;1771862;81;21048;-73
2021/05/28 00:49:34;;;;;;;36.48;24.00;;;;;;;15.91;100.00;99845.75;1771749;81;21057;-74
2021/05/28 00:52:02;;;;;;;30.85;19.05;;;;;;;15.88;100.00;99842.94;1771806;81;21021;-73
2021/05/28 00:54:28;;;;;;;33.63;19.85;;;;;;;15.88;100.00;99837.98;1771792;81;20993;-74
2021/05/28 00:56:57;;;;;;;31.12;17.17;;;;;;;15.87;100.00;99840.42;1771693;81;21071;-74
2021/05/28 00:59:24;;;;;;;26.55;14.47;;;;;;;15.84;100.00;99835.38;1771849;81;21049;-74
2021/05/28 01:01:52;;;;;;;22.20;9.75;;;;;;;15.80;100.00;99828.14;1771886;81;21032;-74
2021/05/28 01:04:21;;;;;;;19.80;9.75;;;;;;;15.77;100.00;99829.09;1771743;80;21040;-73
2021/05/28 01:06:48;;;;;;;24.40;9.55;;;;;;;15.74;100.00;99828.94;1771703;81;21052;-73
2021/05/28 01:09:16;;;;;;;18.95;9.40;;;;;;;15.73;100.00;99832.20;1771853;81;21033;-73
2021/05/28 01:11:43;;;;;;;24.10;9.33;;;;;;;15.70;100.00;99828.52;1771585;81;21052;-73
2021/05/28 01:14:11;;;;;;;48.33;21.70;;;;;;;15.65;100.00;99831.06;1771773;81;21030;-74
2021/05/28 01:16:39;;;;;;;46.68;19.48;;;;;;;15.63;100.00;99825.48;1771722;81;21064;-74
2021/05/28 01:19:07;;;;;;;38.73;17.12;;;;;;;15.62;100.00;99821.11;1771527;81;21080;-74
2021/05/28 01:21:36;;;;;;;33.25;14.50;;;;;;;15.60;100.00;99823.17;1771742;80;21026;-74
2021/05/28 01:24:05;;;;;;;27.95;13.13;;;;;;;15.56;100.00;99820.03;1769809;80;21128;-74
2021/05/28 01:26:32;;;;;;;26.60;13.10;;;;;;;15.53;100.00;99817.22;1763526;81;21527;-74
2021/05/28 01:29:00;;;;;;;33.92;18.15;;;;;;;15.48;100.00;99822.45;1756324;81;20985;-74
2021/05/28 01:31:27;;;;;;;35.88;17.82;;;;;;;15.46;100.00;99815.55;1742862;81;21009;-74
2021/05/28 01:33:54;;;;;;;36.10;19.95;;;;;;;15.45;100.00;99820.13;1763202;81;21037;-74
2021/05/28 01:36:21;;;;;;;36.53;21.65;;;;;;;15.43;100.00;99822.23;1763726;81;21057;-74
2021/05/28 01:38:47;;;;;;;24.43;12.60;;;;;;;15.43;100.00;99823.59;1763343;81;21009;-74
2021/05/28 01:41:15;;;;;;;23.87;11.55;;;;;;;15.42;100.00;99816.45;1763279;80;21065;-74
2021/05/28 01:43:42;;;;;;;17.52;7.85;;;;;;;15.45;100.00;99824.75;1763328;81;21057;-74
2021/05/28 01:46:09;;;;;;;14.80;6.50;;;;;;;15.46;100.00;99822.36;1763547;81;21001;-74
2021/05/28 01:48:36;;;;;;;13.38;6.15;;;;;;;15.44;100.00;99823.06;1763274;81;21053;-74
2021/05/28 01:51:02;;;;;;;13.45;6.90;;;;;;;15.45;100.00;99825.58;1763656;81;20990;-74
2021/05/28 01:53:30;;;;;;;15.55;6.28;;;;;;;15.47;100.00;99822.12;1760221;81;21523;-74
2021/05/28 01:55:57;;;;;;;15.43;5.85;;;;;;;15.47;100.00;99823.48;1763626;81;21006;-70
2021/05/28 01:58:24;;;;;;;11.88;6.12;;;;;;;15.45;100.00;99811.96;1763530;81;21017;-70
2021/05/28 02:00:52;;;;;;;14.68;6.47;;;;;;;15.42;100.00;99810.17;1763760;81;20974;-71
2021/05/28 02:03:19;;;;;;;11.73;5.42;;;;;;;15.42;100.00;99810.17;1763710;81;21069;-70
2021/05/28 02:05:48;;;;;;;14.35;6.05;;;;;;;15.40;100.00;99815.83;1763495;81;21062;-70
2021/05/28 02:08:15;;;;;;;25.32;8.25;;;;;;;15.36;100.00;99820.03;1763514;81;21084;-70
2021/05/28 02:10:42;;;;;;;18.25;6.62;;;;;;;15.33;100.00;99817.20;1763614;81;21013;-70
2021/05/28 02:13:09;;;;;;;16.20;5.62;;;;;;;15.33;100.00;99817.20;1763581;81;21049;-70
2021/05/28 02:15:36;;;;;;;12.47;5.35;;;;;;;15.35;100.00;99815.61;1763187;81;21037;-70
2021/05/28 02:18:04;;;;;;;15.35;6.10;;;;;;;15.34;100.00;99817.50;1763317;81;21363;-70
2021/05/28 02:20:31;;;;;;;12.85;5.58;;;;;;;15.38;100.00;99816.03;1742513;81;21547;-74
2021/05/28 02:22:58;;;;;;;12.15;5.33;;;;;;;15.38;100.00;99816.03;1763778;80;21556;-73
2021/05/28 02:25:24;;;;;;;10.13;4.97;;;;;;;15.39;100.00;99820.98;1765213;81;21069;-74
2021/05/28 02:27:52;;;;;;;15.88;5.55;;;;;;;15.41;100.00;99809.87;1769837;80;21042;-73
2021/05/28 02:30:19;;;;;;;13.62;5.28;;;;;;;15.43;100.00;99813.23;1767372;81;21005;-73
2021/05/28 02:32:45;;;;;;;11.83;5.60;;;;;;;15.46;100.00;99814.18;1750340;81;20982;-73
2021/05/28 02:35:14;;;;;;;12.90;5.58;;;;;;;15.50;100.00;99818.98;1771651;81;21017;-74
2021/05/28 02:37:40;;;;;;;10.48;5.25;;;;;;;15.50;100.00;99818.98;1771861;81;21000;-73
2021/05/28 02:40:08;;;;;;;15.80;5.87;;;;;;;15.56;100.00;99818.67;1771828;81;21037;-74
2021/05/28 02:42:35;;;;;;;12.85;4.97;;;;;;;15.59;100.00;99816.89;1771929;81;21001;-74
2021/05/28 02:45:06;;;;;;;11.12;5.25;;;;;;;15.69;100.00;99811.88;1771790;81;21028;-74
2021/05/28 02:47:32;;;;;;;13.45;6.00;;;;;;;15.69;100.00;99811.88;1745466;81;21546;-74
2021/05/28 02:49:59;;;;;;;11.70;5.58;;;;;;;15.72;100.00;99807.38;1745530;82;21048;-74
2021/05/28 02:52:27;;;;;;;13.83;6.15;;;;;;;15.77;100.00;99810.02;1745450;82;21036;-74
2021/05/28 02:54:54;;;;;;;19.23;6.45;;;;;;;15.81;100.00;99808.03;1745481;82;21056;-74
2021/05/28 02:57:22;;;;;;;19.17;6.58;;;;;;;15.81;100.00;99808.03;1745484;82;21068;-74
2021/05/28 02:59:48;;;;;;;12.33;6.00;;;;;;;15.87;100.00;99813.16;1745534;82;21012;-75
2021/05/28 03:02:17;;;;;;;19.40;6.67;;;;;;;15.91;100.00;99821.22;1745551;82;21024;-73
2021/05/28 03:04:44;;;;;;;24.40;7.28;;;;;;;15.98;100.00;99817.95;1745677;82;21040;-73
2021/05/28 03:07:10;;;;;;;37.58;9.53;;;;;;;15.98;100.00;99817.95;1745678;82;21035;-73
2021/05/28 03:09:37;;;;;;;46.88;10.75;;;;;;;16.05;100.00;99820.14;1745534;82;21020;-73
2021/05/28 03:12:06;;;;;;;57.00;12.15;;;;;;;16.14;100.00;99820.77;1745482;82;21074;-73
2021/05/28 03:14:33;;;;;;;53.80;11.10;;;;;;;16.24;100.00;99813.52;1745499;82;21096;-74
2021/05/28 03:17:00;;;;;;;46.00;10.03;;;;;;;16.31;100.00;99806.14;1745734;82;21043;-74
2021/05/28 03:19:32;;;;;;;38.63;8.68;;;;;;;16.38;100.00;99809.70;1745532;82;21562;-74
2021/05/28 03:24:42;;;;;;;37.95;8.58;;;;;;;16.54;100.00;99808.88;1745681;81;21115;-73
2021/05/28 03:27:10;;;;;;;39.33;9.75;;;;;;;16.63;100.00;99806.25;1745648;82;21056;-74
2021/05/28 03:29:37;;;;;;;30.05;8.18;;;;;;;16.70;100.00;99801.06;1699645;82;21023;-70
2021/05/28 03:32:04;;;;;;;26.82;7.62;;;;;;;16.78;100.00;99797.23;1696840;84;21629;-71
2021/05/28 03:34:31;;;;;;;29.30;7.47;;;;;;;16.88;100.00;99797.64;1696889;84;21592;-70
2021/05/28 03:36:59;;;;;;;28.55;8.20;;;;;;;17.02;100.00;99796.20;1696918;84;21039;-69
2021/05/28 03:39:26;;;;;;;18.67;5.50;;;;;;;17.16;100.00;99799.70;1696997;84;21095;-69
2021/05/28 03:41:53;;;;;;;20.17;4.95;;;;;;;17.33;100.00;99793.16;1696865;84;21055;-69
2021/05/28 03:44:20;;;;;;;13.22;4.80;;;;;;;17.54;100.00;99787.30;1734057;81;21547;-74
2021/05/28 03:46:48;;;;;;;13.35;4.60;;;;;;;17.81;100.00;99785.70;1770345;80;21077;-75
2021/05/28 03:49:14;;;;;;;13.22;4.22;;;;;;;18.06;100.00;99776.66;1704751;84;21037;-74
2021/05/28 03:51:41;;;;;;;10.20;3.70;;;;;;;18.33;100.00;99776.67;1770148;81;21531;-74
2021/05/28 03:54:08;;;;;;;8.73;4.12;;;;;;;18.60;100.00;99770.33;1704767;84;21058;-74
2021/05/28 03:56:35;;;;;;;10.72;4.25;;;;;;;18.84;100.00;99772.37;1770106;81;21511;-74
2021/05/28 03:59:02;;;;;;;11.08;3.83;;;;;;;19.08;100.00;99767.82;1770129;81;21045;-75
2021/05/28 04:01:29;;;;;;;6.55;3.52;;;;;;;19.33;100.00;99767.09;1704605;84;21065;-74
2021/05/28 04:03:56;;;;;;;10.23;3.80;;;;;;;19.59;100.00;99766.92;1704674;84;21069;-74
2021/05/28 04:06:23;;;;;;;9.30;3.70;;;;;;;19.81;100.00;99763.90;1704865;84;21081;-75
2021/05/28 04:08:49;;;;;;;10.60;3.83;;;;;;;20.01;100.00;99764.07;1770296;81;21049;-73
2021/05/28 04:11:16;;;;;;;15.65;4.65;;;;;;;20.19;100.00;99765.86;1704585;84;21014;-74
2021/05/28 04:13:44;;;;;;;8.63;4.08;;;;;;;20.35;100.00;99759.62;1770061;81;21053;-75
2021/05/28 04:16:11;;;;;;;13.13;4.53;;;;;;;20.52;100.00;99763.80;1770448;81;20974;-75
2021/05/28 04:18:38;;;;;;;13.30;5.00;;;;;;;20.71;100.00;99756.25;1704617;84;21046;-75
2021/05/28 04:21:05;;;;;;;10.05;4.40;;;;;;;20.89;100.00;99753.84;1770355;81;21070;-75
2021/05/28 04:23:32;;;;;;;12.75;4.65;;;;;;;21.05;100.00;99753.06;1704490;84;21064;-75
2021/05/28 04:26:00;;;;;;;12.82;4.97;;;;;;;21.19;100.00;99751.36;1764627;81;21080;-74
2021/05/28 04:28:28;;;;;;;12.43;4.78;;;;;;;21.26;100.00;99754.78;1755220;81;21045;-74
2021/05/28 04:30:56;;;;;;;10.80;4.87;;;;;;;21.31;100.00;99752.12;1763268;81;21033;-75
2021/05/28 04:33:23;;;;;;;11.57;4.80;;;;;;;21.40;100.00;99749.24;1763452;81;21065;-75
2021/05/28 04:35:49;;;;;;;9.28;4.55;;;;;;;21.56;100.00;99748.16;1763652;81;21045;-75
2021/05/28 04:38:16;;;;;;;10.50;3.92;;;;;;;21.80;100.00;99744.13;1763484;81;21001;-75
2021/05/28 04:40:43;;;;;;;9.78;3.70;;;;;;;22.09;100.00;99748.12;1763451;81;21503;-75
2021/05/28 04:43:09;;;;;;;6.28;3.60;;;;;;;22.37;100.00;99743.56;1763542;81;21069;-75
2021/05/28 04:45:36;;;;;;;12.23;3.92;;;;;;;22.65;100.00;99744.45;1763348;81;21053;-74
2021/05/28 04:48:04;;;;;;;9.18;3.47;;;;;;;22.87;100.00;99745.23;1763487;81;21003;-75
2021/05/28 04:50:30;;;;;;;13.65;4.00;;;;;;;23.02;100.00;99741.81;1763463;81;21467;-74
2021/05/28 04:53:03;;;;;;;6.47;3.80;;;;;;;23.15;100.00;99735.63;1763566;81;21037;-74
2021/05/28 04:55:30;;;;;;;9.33;3.62;;;;;;;23.31;100.00;99736.86;1706594;84;21105;-74
2021/05/28 04:57:56;;;;;;;8.18;3.60;;;;;;;23.53;100.00;99734.55;1706585;84;21045;-75
2021/05/28 05:00:24;;;;;;;9.05;3.52;;;;;;;23.68;100.00;99734.66;1706775;83;21621;-76
2021/05/28 05:02:51;;;;;;;4.42;2.90;;;;;;;23.84;100.00;99734.25;1706726;83;21053;-69
2021/05/28 05:05:18;;;;;;;10.10;3.50;;;;;;;23.98;100.00;99733.23;1713900;83;21052;-68
2021/05/28 05:07:45;;;;;;;9.33;3.42;;;;;;;24.05;100.00;99723.34;1714226;84;21013;-69
2021/05/28 05:10:14;;;;;;;22.40;9.05;;;;;;;24.03;100.00;99727.74;1714302;84;21108;-69
2021/05/28 05:12:41;;;;;;;17.90;6.87;;;;;;;24.14;100.00;99733.33;1714389;84;21602;-71
2021/05/28 05:15:10;;;;;;;11.15;4.12;;;;;;;24.22;100.00;99718.45;1714169;84;21045;-70
2021/05/28 05:17:38;;;;;;;64.35;49.00;;;;;;;24.38;100.00;99721.27;1714225;84;21017;-70
2021/05/28 05:20:07;;;;;;;96.92;87.02;;;;;;;24.52;100.00;99718.27;1714011;84;21056;-70
2021/05/28 05:22:35;;;;;;;226.45;201.70;;;;;;;24.58;100.00;99720.00;1714029;84;21144;-70
2021/05/28 05:25:03;;;;;;;158.42;141.60;;;;;;;24.74;100.00;99724.19;1714249;83;21096;-71
2021/05/28 05:27:30;;;;;;;85.20;75.97;;;;;;;24.87;100.00;99719.50;1714353;84;21505;-68
2021/05/28 05:29:57;;;;;;;34.83;26.82;;;;;;;25.08;100.00;99717.60;1661951;83;21765;-71
2021/05/28 05:32:24;;;;;;;11.12;6.50;;;;;;;25.34;100.00;99712.95;1667441;86;21625;-70
2021/05/28 05:34:53;;;;;;;21.37;10.48;;;;;;;25.58;100.00;99715.13;1667368;86;21569;-70
2021/05/28 05:37:20;;;;;;;23.77;6.22;;;;;;;25.79;100.00;99715.11;1645219;86;21103;-69
2021/05/28 05:39:47;;;;;;;13.18;4.78;;;;;;;25.97;100.00;99715.92;1667411;86;21011;-70
2021/05/28 05:42:14;;;;;;;14.90;4.70;;;;;;;26.14;100.00;99719.76;1667010;86;21079;-68
2021/05/28 05:44:41;;;;;;;12.58;5.78;;;;;;;26.26;100.00;99716.64;1667260;86;21067;-68
2021/05/28 05:47:08;;;;;;;25.92;6.20;;;;;;;26.42;100.00;99712.72;1667199;85;21135;-67
2021/05/28 05:49:36;;;;;;;21.40;5.17;;;;;;;26.62;100.00;99708.22;1667183;86;21047;-71
2021/05/28 05:52:03;;;;;;;11.30;4.85;;;;;;;26.75;100.00;99710.34;1715088;80;21032;-68
2021/05/28 05:54:30;;;;;;;16.67;5.35;;;;;;;26.81;100.00;99709.77;1770121;81;21006;-67
2021/05/28 05:56:56;;;;;;;17.00;5.08;;;;;;;26.86;100.00;99708.33;1703961;83;21065;-69
2021/05/28 05:59:24;;;;;;;15.60;4.35;;;;;;;26.93;100.00;99709.40;1770006;80;21126;-68
2021/05/28 06:01:52;;;;;;;10.63;3.70;;;;;;;27.00;100.00;99707.98;1770095;81;21049;-72
2021/05/28 06:04:19;;;;;;;15.70;4.33;;;;;;;27.04;100.00;99698.52;1770096;80;21025;-71
2021/05/28 06:06:46;;;;;;;20.35;5.65;;;;;;;27.02;100.00;99699.34;1770282;81;21057;-71
2021/05/28 06:09:12;;;;;;;11.63;4.12;;;;;;;27.12;100.00;99702.05;1770005;81;21073;-72
2021/05/28 06:11:40;;;;;;;21.23;4.70;;;;;;;27.23;100.00;99700.86;1769570;80;21065;-73
2021/05/28 06:14:07;;;;;;;24.20;4.67;;;;;;;27.42;100.00;99697.39;1766077;80;21040;-71
2021/05/28 06:16:34;;;;;;;15.32;4.47;;;;;;;27.48;100.00;99700.38;1771690;81;21041;-69
2021/05/28 06:19:01;;;;;;;40.52;10.50;;;;;;;27.53;100.00;99698.94;1754005;80;21549;-68
2021/05/28 06:21:31;;;;;;;36.20;13.62;;;;;;;27.68;100.00;99698.55;1741224;82;21076;-70
2021/05/28 06:23:58;;;;;;;23.92;7.60;;;;;;;27.87;100.00;99702.77;1747418;81;21025;-70
2021/05/28 06:26:24;;;;;;;17.55;6.33;;;;;;;28.11;100.00;99700.86;1736573;81;21125;-69
2021/05/28 06:28:51;;;;;;;19.60;6.03;;;;;;;28.30;100.00;99704.27;1734818;81;21038;-70
2021/05/28 06:31:18;;;;;;;22.42;11.03;;;;;;;28.43;100.00;99701.31;1728444;81;21523;-69
2021/05/28 06:33:45;;;;;;;17.40;8.08;;;;;;;28.47;100.00;99697.62;1707448;84;20981;-69
2021/05/28 06:36:12;;;;;;;15.83;5.87;;;;;;;28.51;100.00;99697.30;1737543;81;21045;-69
2021/05/28 06:38:38;;;;;;;17.17;5.42;;;;;;;28.53;100.00;99703.39;1745031;81;21484;-70
2021/05/28 06:41:05;;;;;;;11.38;4.40;;;;;;;28.66;100.00;99706.59;1696020;84;21057;-70
2021/05/28 06:43:33;;;;;;;15.90;4.25;;;;;;;28.72;100.00;99707.61;1696125;84;21042;-72
2021/05/28 06:46:00;;;;;;;17.98;4.53;;;;;;;28.78;100.00;99709.19;1761733;81;21078;-70
2021/05/28 06:48:28;;;;;;;11.20;4.08;;;;;;;28.89;100.00;99704.29;1756337;81;21555;-71
2021/05/28 06:50:55;;;;;;;12.60;4.05;;;;;;;29.04;100.00;99700.46;1744800;81;21021;-70
2021/05/28 06:53:21;;;;;;;28.20;7.17;;;;;;;29.14;100.00;99707.23;1763474;81;21009;-71
2021/05/28 06:55:48;;;;;;;11.95;4.00;;;;;;;29.20;100.00;99700.22;1750241;81;21045;-70
2021/05/28 06:58:16;;;;;;;13.65;4.15;;;;;;;29.33;100.00;99704.45;1733306;83;21029;-72
2021/05/28 07:00:43;;;;;;;21.85;4.40;;;;;;;29.32;100.00;99709.78;1742565;81;21070;-70
2021/05/28 07:03:10;;;;;;;15.90;4.22;;;;;;;29.29;100.00;99699.24;1742715;82;21054;-72
2021/05/28 07:05:37;;;;;;;30.08;4.90;;;;;;;29.29;100.00;99695.06;1741869;81;21100;-73
2021/05/28 07:08:04;;;;;;;41.50;24.02;;;;;;;29.33;100.00;99693.89;1749797;81;21017;-73
2021/05/28 07:10:31;;;;;;;30.25;7.00;;;;;;;29.37;100.00;99694.11;1733357;83;21032;-77
2021/05/28 07:13:00;;;;;;;34.55;18.55;;;;;;;29.45;100.00;99690.63;1754256;81;21073;-73
2021/05/28 07:15:27;;;;;;;20.20;5.00;;;;;;;29.61;100.00;99689.22;1763510;80;21069;-72
2021/05/28 07:17:54;;;;;;;58.92;49.58;;;;;;;29.72;100.00;99687.87;1753924;81;21544;-71
2021/05/28 07:20:22;;;;;;;15.90;5.10;;;;;;;29.87;100.00;99687.36;1750390;81;21049;-71
2021/05/28 07:22:48;;;;;;;49.77;11.80;;;;;;;30.09;98.83;99684.69;1761608;81;20970;-73
2021/05/28 07:25:15;;;;;;;23.20;7.00;;;;;;;30.21;99.38;99677.78;1748394;81;21020;-72
2021/05/28 07:27:42;;;;;;;28.90;5.10;;;;;;;30.38;99.45;99673.78;1743170;82;21532;-73
2021/05/28 07:30:11;;;;;;;16.25;4.90;;;;;;;30.58;96.63;99674.47;1757671;81;21582;-71
2021/05/28 07:32:38;;;;;;;13.78;3.85;;;;;;;30.74;94.52;99677.19;1761864;81;21030;-70
2021/05/28 07:35:06;;;;;;;20.48;4.72;;;;;;;30.81;84.94;99672.54;1762034;81;21089;-74
2021/05/28 07:37:33;;;;;;;14.73;6.58;;;;;;;30.75;88.50;99666.26;1761911;81;21045;-70
2021/05/28 07:40:00;;;;;;;12.98;3.60;;;;;;;30.83;83.15;99675.28;1695871;84;21512;-70
2021/05/28 07:42:27;;;;;;;11.20;3.50;;;;;;;30.74;81.46;99666.02;1692588;84;21072;-69
2021/05/28 07:44:54;;;;;;;6.45;3.00;;;;;;;30.57;85.82;99669.47;1740004;81;21025;-72
2021/05/28 07:47:21;;;;;;;302.10;148.28;;;;;;;30.55;85.32;99661.98;1733005;83;21021;-71
2021/05/28 07:49:48;;;;;;;26.57;11.05;;;;;;;30.53;86.47;99665.66;1733111;81;21048;-71
2021/05/28 07:52:15;;;;;;;49.93;21.15;;;;;;;30.43;83.29;99656.94;1732993;83;21057;-70
2021/05/28 07:54:42;;;;;;;33.92;11.05;;;;;;;30.40;89.53;99653.41;1733059;82;21037;-72
2021/05/28 07:57:08;;;;;;;32.63;10.45;;;;;;;30.62;89.00;99644.83;1733205;83;21150;-70
2021/05/28 07:59:37;;;;;;;16.75;4.80;;;;;;;30.98;87.54;99642.01;1733116;83;21021;-71
2021/05/28 08:02:04;;;;;;;19.25;4.20;;;;;;;31.28;82.76;99639.58;1758862;81;21017;-71
2021/05/28 08:04:31;;;;;;;18.45;4.80;;;;;;;31.22;80.35;99640.88;1763036;81;21087;-71
2021/05/28 08:06:57;;;;;;;29.55;9.13;;;;;;;31.12;81.39;99635.55;1763021;81;21495;-70
2021/05/28 08:09:24;;;;;;;43.95;16.35;;;;;;;31.07;83.01;99634.28;1763110;81;21503;-70
2021/05/28 08:11:51;;;;;;;13.75;4.08;;;;;;;31.22;80.85;99635.29;1762231;81;21690;-71
2021/05/28 08:14:19;;;;;;;13.72;6.62;;;;;;;31.47;79.51;99628.78;1738954;81;21594;-72
2021/05/28 08:16:45;;;;;;;16.55;4.33;;;;;;;31.73;77.44;99634.48;1733208;83;21080;-69
2021/05/28 08:19:13;;;;;;;8.25;3.30;;;;;;;31.90;72.55;99629.55;1748629;81;21836;-71
2021/05/28 08:21:40;;;;;;;41.58;21.95;;;;;;;31.94;71.25;99624.95;1760236;81;21006;-70
2021/05/28 08:24:09;;;;;;;40.75;22.95;;;;;;;31.91;71.57;99618.63;1743237;81;21031;-70
2021/05/28 08:26:36;;;;;;;26.00;11.18;;;;;;;31.91;75.76;99621.42;1709839;83;21619;-71
2021/05/28 08:29:03;;;;;;;14.30;5.60;;;;;;;31.99;71.60;99621.42;1746991;81;21009;-70
2021/05/28 08:31:34;;;;;;;10.48;3.80;;;;;;;32.05;70.49;99622.16;1762972;81;21515;-70
2021/05/28 08:34:02;;;;;;;18.77;6.75;;;;;;;32.14;71.32;99612.39;1762614;81;21056;-68
2021/05/28 08:36:30;;;;;;;24.72;8.35;;;;;;;32.35;74.23;99605.56;1762901;81;21017;-70
2021/05/28 08:38:57;;;;;;;36.90;14.43;;;;;;;32.54;70.68;99607.47;1763434;80;21053;-70
2021/05/28 08:41:24;;;;;;;32.55;8.93;;;;;;;32.64;70.07;99607.77;1754819;81;21009;-70
2021/05/28 08:43:51;;;;;;;10.95;3.50;;;;;;;32.82;70.90;99605.77;1733389;81;21002;-70
2021/05/28 08:46:17;;;;;;;12.98;4.00;;;;;;;33.04;68.54;99606.16;1733069;83;21037;-70
2021/05/28 08:48:45;;;;;;;17.07;5.45;;;;;;;33.22;69.02;99600.53;1737152;81;20999;-71
2021/05/28 08:51:12;;;;;;;21.33;5.33;;;;;;;33.18;66.71;99598.97;1746249;81;20979;-71
2021/05/28 08:53:38;;;;;;;11.83;3.65;;;;;;;33.05;69.83;99596.59;1743571;82;21517;-70
2021/05/28 08:56:10;;;;;;;17.55;4.60;;;;;;;32.97;66.73;99601.65;1748788;81;21001;-72
2021/05/28 08:58:38;;;;;;;24.40;9.55;;;;;;;32.53;64.35;99605.84;1761785;81;21062;-71
2021/05/28 09:01:07;;;;;;;29.67;13.08;;;;;;;32.30;66.47;99598.17;1696775;84;21037;-71
2021/05/28 09:03:36;;;;;;;19.48;6.00;;;;;;;32.16;65.46;99601.11;1761491;81;21128;-70
2021/05/28 09:06:17;;;;;;;30.12;12.03;;;;;;;32.10;69.92;99595.44;1695483;84;21319;-69
2021/05/28 09:08:44;;;;;;;24.52;8.50;;;;;;;32.30;71.79;99599.57;1761623;80;21057;-70
2021/05/28 09:11:19;;;;;;;24.00;7.55;;;;;;;32.63;71.64;99591.30;1769571;81;20994;-69
2021/05/28 09:13:56;;;;;;;11.40;4.20;;;;;;;32.85;67.49;99591.70;1761688;81;21026;-69
2021/05/28 09:16:27;;;;;;;16.42;6.50;;;;;;;32.97;68.83;99593.80;1761652;80;21563;-70
2021/05/28 09:18:57;;;;;;;18.82;5.25;;;;;;;33.03;69.17;99589.11;1743718;81;21607;-70
2021/05/28 09:21:30;;;;;;;9.70;3.10;;;;;;;33.29;72.04;99590.47;1663722;84;21041;-71
2021/05/28 09:24:02;;;;;;;14.35;5.92;;;;;;;33.52;63.58;99580.42;1645982;86;21522;-71
2021/05/28 09:26:30;;;;;;;35.60;23.22;;;;;;;33.38;61.11;99584.84;1648029;85;21084;-72
2021/05/28 09:28:57;;;;;;;18.85;5.92;;;;;;;33.26;68.24;99587.52;1651179;85;21078;-74
2021/05/28 09:31:26;;;;;;;37.48;12.93;;;;;;;33.28;59.09;99581.81;1650960;86;21048;-74
2021/05/28 09:33:55;;;;;;;17.70;8.10;;;;;;;33.04;63.94;99571.16;1641093;86;21060;-70
2021/05/28 09:36:27;;;;;;;20.97;4.53;;;;;;;33.18;66.18;99578.55;1656534;86;21053;-72
2021/05/28 09:39:09;;;;;;;10.82;3.37;;;;;;;33.37;66.66;99578.17;1658081;86;21496;-71
2021/05/28 09:41:52;;;;;;;14.25;3.55;;;;;;;33.43;63.34;99572.61;1660872;86;21633;-70
2021/05/28 09:44:24;;;;;;;12.50;4.00;;;;;;;33.34;66.54;99574.04;1661587;86;21059;-71
2021/05/28 09:47:07;;;;;;;12.58;3.50;;;;;;;33.45;67.56;99574.52;1649024;86;21502;-72
2021/05/28 09:49:47;;;;;;;11.40;3.50;;;;;;;33.53;64.14;99565.23;1659985;86;21579;-69
2021/05/28 09:52:21;;;;;;;12.00;3.20;;;;;;;33.53;62.94;99566.64;1666486;85;21049;-69
2021/05/28 09:55:05;;;;;;;5.85;2.70;;;;;;;33.54;68.49;99561.29;1680575;85;21622;-70
2021/05/28 09:57:39;;;;;;;8.58;3.52;;;;;;;33.83;62.68;99562.48;1680443;84;21056;-70
2021/05/28 10:00:14;;;;;;;17.15;4.22;;;;;;;33.83;60.29;99567.50;1680545;85;21033;-71
2021/05/28 10:05:15;;;;;;;21.05;7.20;;;;;;;33.33;64.51;99568.22;1590832;89;21191;-72
2021/05/28 10:07:42;;;;;;;11.97;6.17;;;;;;;33.27;67.68;99563.94;1582674;89;21111;-72
2021/05/28 10:10:10;;;;;;;13.72;3.83;;;;;;;33.22;60.93;99566.36;1593722;89;21095;-72
2021/05/28 10:12:37;;;;;;;20.75;5.60;;;;;;;32.90;64.23;99562.11;1558942;90;21080;-71
2021/05/28 10:15:08;;;;;;;14.53;4.00;;;;;;;32.74;67.07;99566.00;1578319;90;21112;-69
2021/05/28 10:17:35;;;;;;;22.07;5.67;;;;;;;32.61;65.27;99556.64;1574753;91;21111;-70
2021/05/28 10:20:02;;;;;;;13.10;3.83;;;;;;;32.30;71.09;99560.41;1570580;89;21120;-70
2021/05/28 10:22:29;;;;;;;15.20;4.90;;;;;;;32.10;67.00;99554.89;1571165;91;21629;-71
2021/05/28 10:24:55;;;;;;;26.57;7.97;;;;;;;31.95;69.98;99551.13;1603573;89;21172;-70
2021/05/28 10:27:24;;;;;;;11.95;4.00;;;;;;;31.78;69.37;99551.90;1574246;91;21384;-69
2021/05/28 10:29:54;;;;;;;15.15;4.30;;;;;;;31.59;74.38;99546.61;1651404;86;21614;-72
2021/05/28 10:32:23;;;;;;;28.05;5.83;;;;;;;31.53;72.38;99546.48;1626951;87;21080;-70
2021/05/28 10:35:13;;;;;;;18.25;4.30;;;;;;;31.44;72.84;99549.22;1645289;87;21045;-69
2021/05/28 10:37:45;;;;;;;5.83;2.87;;;;;;;31.32;71.05;99546.20;1637307;87;21524;-74
2021/05/28 10:40:30;;;;;;;16.77;5.40;;;;;;;31.19;73.18;99541.80;1667964;85;21040;-77
2021/05/28 10:43:01;;;;;;;16.65;11.18;;;;;;;31.33;78.58;99543.09;1672264;85;21618;-75
2021/05/28 10:46:08;;;;;;;22.15;5.22;;;;;;;31.64;71.85;99540.03;1673881;86;21097;-74
2021/05/28 10:48:44;;;;;;;12.88;3.45;;;;;;;31.86;70.08;99533.52;1590815;90;21094;-75
2021/05/28 10:51:32;;;;;;;20.23;3.85;;;;;;;32.46;73.67;99524.95;1590779;90;21121;-77
2021/05/28 10:54:06;;;;;;;12.10;3.22;;;;;;;32.90;68.89;99532.71;1611986;88;21075;-79
2021/05/28 10:56:41;;;;;;;12.45;3.62;;;;;;;32.97;66.71;99521.84;1629088;88;21604;-73
2021/05/28 10:59:21;;;;;;;24.77;4.33;;;;;;;32.87;63.59;99512.41;1572682;90;21099;-73
2021/05/28 11:01:57;;;;;;;23.60;4.90;;;;;;;32.79;69.60;99521.63;1607834;87;21093;-72
2021/05/28 11:04:31;;;;;;;23.67;5.35;;;;;;;32.86;67.37;99523.34;1599148;89;21121;-74
2021/05/28 11:07:09;;;;;;;37.60;10.82;;;;;;;32.80;65.16;99520.48;1570011;91;21122;-72
2021/05/28 11:09:42;;;;;;;57.03;8.58;;;;;;;32.55;68.13;99515.97;1575809;91;21211;-73
2021/05/28 11:12:16;;;;;;;24.25;4.87;;;;;;;32.23;70.75;99508.34;1556939;91;21595;-73
2021/05/28 11:15:10;;;;;;;23.62;4.62;;;;;;;31.94;73.29;99515.38;1550250;92;21663;-74
2021/05/28 11:17:59;;;;;;;16.90;4.05;;;;;;;31.63;74.24;99521.05;1550016;92;21102;-73
2021/05/28 11:20:35;;;;;;;24.37;5.10;;;;;;;31.46;81.12;99519.56;1548982;92;21095;-74
2021/05/28 11:23:16;;;;;;;25.45;4.50;;;;;;;31.63;82.10;99518.25;1550879;92;21122;-73
2021/05/28 11:25:53;;;;;;;34.48;6.53;;;;;;;31.68;78.64;99511.67;1550248;92;21082;-73
2021/05/28 11:28:20;;;;;;;21.27;5.05;;;;;;;31.47;79.91;99518.44;1540338;91;21135;-74
2021/05/28 11:30:52;;;;;;;21.02;6.70;;;;;;;31.11;82.22;99506.85;1545107;92;21131;-73